createdAt,value
2018-04-14T03:47:35.657Z,117.50
2018-04-14T03:48:35.568Z,139.20
2018-04-14T03:50:28.477Z,137.60
2018-04-14T03:51:28.486Z,130.00
2018-04-14T03:53:21.416Z,125.80
2018-04-14T03:54:21.410Z,123.70
2018-04-14T03:56:14.329Z,112.90
2018-04-14T03:57:14.334Z,114.00
2018-04-14T03:59:07.322Z,120.10
2018-04-14T04:00:07.262Z,121.10
2018-04-14T04:02:00.199Z,120.20
2018-04-14T04:03:00.196Z,116.90
2018-04-14T04:04:53.115Z,111.20
2018-04-14T04:05:53.132Z,110.70
2018-04-14T04:07:46.067Z,106.10
2018-04-14T04:08:46.060Z,108.40
2018-04-14T04:10:38.982Z,106.20
2018-04-14T04:11:38.990Z,106.70
2018-04-14T04:13:31.929Z,105.90
2018-04-14T04:14:31.923Z,100.90
2018-04-14T04:16:24.868Z,111.20
2018-04-14T04:17:24.864Z,101.20
2018-04-14T04:19:17.787Z,100.50
2018-04-14T04:20:17.798Z,107.50
2018-04-14T04:22:10.747Z,107.00
2018-04-14T04:23:10.737Z,102.70
2018-04-14T04:25:03.665Z,104.90
2018-04-14T04:26:03.672Z,106.00
2018-04-14T04:27:56.616Z,101.70
2018-04-14T04:28:56.615Z,100.90
2018-04-14T04:30:49.561Z,105.80
2018-04-14T04:31:49.547Z,98.40
2018-04-14T04:33:42.473Z,102.50
2018-04-14T04:34:42.487Z,107.20
2018-04-14T04:36:35.483Z,106.50
2018-04-14T04:37:35.425Z,104.90
2018-04-14T04:39:28.375Z,100.70
2018-04-14T04:40:28.373Z,96.70
2018-04-14T04:42:21.289Z,94.10
2018-04-14T04:43:21.317Z,99.20
2018-04-14T04:45:14.297Z,104.10
2018-04-14T04:46:14.240Z,104.50
2018-04-14T04:48:07.181Z,105.90
2018-04-14T04:49:07.179Z,104.50
2018-04-14T04:51:00.152Z,109.40
2018-04-14T04:52:00.120Z,107.80
2018-04-14T04:53:53.066Z,106.00
2018-04-14T04:54:53.060Z,106.60
2018-04-14T04:56:45.982Z,107.30
2018-04-14T04:57:45.995Z,105.40
2018-04-14T04:59:38.937Z,100.70
2018-04-14T05:00:38.941Z,105.20
2018-04-14T05:02:31.859Z,103.80
2018-04-14T05:03:31.871Z,104.60
2018-04-14T05:05:24.811Z,101.30
2018-04-14T05:06:24.842Z,96.10
2018-04-14T05:08:17.755Z,95.50
2018-04-14T05:09:17.749Z,98.30
2018-04-14T05:11:10.672Z,94.90
2018-04-14T05:12:10.686Z,101.50
2018-04-14T05:14:03.685Z,102.30
2018-04-14T05:15:03.626Z,96.90
2018-04-14T05:16:56.562Z,98.60
2018-04-14T05:17:56.573Z,103.30
2018-04-14T05:19:49.509Z,100.30
2018-04-14T05:20:49.510Z,102.90
2018-04-14T05:22:42.429Z,90.40
2018-04-14T05:23:42.445Z,93.70
2018-04-14T05:25:35.400Z,86.10
2018-04-14T05:26:35.391Z,88.00
2018-04-14T05:28:28.379Z,88.00
2018-04-14T05:29:28.331Z,86.20
2018-04-14T05:31:21.312Z,87.90
2018-04-14T05:32:21.270Z,85.70
2018-04-14T05:34:14.208Z,91.20
2018-04-14T05:35:14.204Z,89.30
2018-04-14T05:37:07.127Z,89.60
2018-04-14T05:38:07.144Z,92.00
2018-04-14T05:40:00.089Z,83.10
2018-04-14T05:41:00.084Z,87.20
2018-04-14T05:42:53.056Z,80.00
2018-04-14T05:43:53.031Z,87.20
2018-04-14T05:45:45.972Z,90.60
2018-04-14T05:46:45.967Z,89.60
2018-04-14T05:48:38.915Z,85.10
2018-04-14T05:49:38.908Z,86.50
2018-04-14T05:51:31.898Z,81.00
2018-04-14T05:52:31.846Z,85.30
2018-04-14T05:54:24.791Z,82.60
2018-04-14T05:55:24.787Z,80.10
2018-04-14T05:57:17.720Z,83.40
2018-04-14T05:58:17.726Z,78.00
2018-04-14T06:00:10.697Z,81.10
2018-04-14T06:01:10.669Z,80.70
2018-04-14T06:03:03.599Z,76.80
2018-04-14T06:04:03.614Z,81.10
2018-04-14T06:05:56.553Z,82.80
2018-04-14T06:06:56.548Z,84.60
2018-04-14T06:08:49.491Z,79.20
2018-04-14T06:09:49.485Z,79.40
2018-04-14T06:11:42.411Z,71.90
2018-04-14T06:12:42.424Z,74.40
2018-04-14T06:14:35.369Z,71.80
2018-04-14T06:15:35.370Z,75.20
2018-04-14T06:17:28.297Z,73.80
2018-04-14T06:18:28.313Z,69.80
2018-04-14T06:20:21.256Z,73.20
2018-04-14T06:21:21.253Z,73.40
2018-04-14T06:23:14.179Z,69.60
2018-04-14T06:24:14.194Z,72.00
2018-04-14T06:26:07.135Z,70.80
2018-04-14T06:27:07.132Z,69.70
2018-04-14T06:29:00.122Z,64.80
2018-04-14T06:30:00.083Z,70.20
2018-04-14T06:31:53.002Z,73.30
2018-04-14T06:32:53.015Z,74.20
2018-04-14T06:34:45.961Z,79.10
2018-04-14T06:35:45.968Z,76.50
2018-04-14T06:37:38.885Z,77.10
2018-04-14T06:38:38.903Z,74.10
2018-04-14T06:40:31.847Z,73.60
2018-04-14T06:41:31.846Z,78.40
2018-04-14T06:43:24.775Z,79.50
2018-04-14T06:44:24.789Z,77.10
2018-04-14T06:46:17.733Z,73.30
2018-04-14T06:47:17.728Z,70.90
2018-04-14T06:49:10.685Z,69.00
2018-04-14T06:50:10.731Z,68.80
2018-04-14T06:52:03.606Z,72.50
2018-04-14T06:53:03.630Z,70.20
2018-04-14T06:54:56.572Z,74.90
2018-04-14T06:55:56.583Z,74.40
2018-04-14T06:57:49.521Z,74.20
2018-04-14T06:58:49.521Z,72.60
2018-04-14T07:00:42.452Z,71.40
2018-04-14T07:01:42.473Z,72.20
2018-04-14T07:03:35.417Z,69.50
2018-04-14T07:04:35.421Z,65.80
2018-04-14T07:06:28.350Z,66.60
2018-04-14T07:07:28.365Z,64.10
2018-04-14T07:09:21.368Z,62.10
2018-04-14T07:10:21.311Z,61.50
2018-04-14T07:12:14.254Z,61.90
2018-04-14T07:13:14.275Z,58.30
2018-04-14T07:15:07.215Z,58.60
2018-04-14T07:16:07.214Z,59.40
2018-04-14T07:18:00.169Z,54.90
2018-04-14T07:19:00.166Z,51.80
2018-04-14T07:20:53.096Z,54.70
2018-04-14T07:21:53.119Z,52.30
2018-04-14T07:23:46.113Z,53.20
2018-04-14T07:24:46.064Z,53.80
2018-04-14T07:26:38.996Z,57.30
2018-04-14T07:27:39.013Z,54.60
2018-04-14T07:29:31.958Z,58.20
2018-04-14T07:30:31.960Z,55.40
2018-04-14T07:32:24.941Z,53.90
2018-04-14T07:33:24.910Z,52.20
2018-04-14T07:35:17.860Z,48.90
2018-04-14T07:36:17.859Z,48.80
2018-04-14T07:38:10.801Z,48.00
2018-04-14T07:39:10.808Z,44.60
2018-04-14T07:41:03.761Z,49.70
2018-04-14T07:42:03.763Z,49.80
2018-04-14T07:43:56.688Z,48.60
2018-04-14T07:44:56.720Z,46.80
2018-04-14T07:46:49.658Z,48.80
2018-04-14T07:47:49.664Z,50.10
2018-04-14T07:49:42.593Z,45.60
2018-04-14T07:50:42.608Z,46.40
2018-04-14T07:52:35.558Z,48.70
2018-04-14T07:53:35.557Z,47.20
2018-04-14T07:55:28.511Z,41.20
2018-04-14T07:56:28.512Z,42.60
2018-04-14T07:58:21.441Z,43.10
2018-04-14T07:59:21.465Z,45.60
2018-04-14T08:01:14.464Z,44.50
2018-04-14T08:02:14.410Z,43.20
2018-04-14T08:04:07.343Z,45.10
2018-04-14T08:05:07.364Z,48.10
2018-04-14T08:07:00.318Z,44.00
2018-04-14T08:08:00.319Z,41.70
2018-04-14T08:09:53.269Z,42.50
2018-04-14T08:10:53.284Z,40.50
2018-04-14T08:12:46.252Z,41.60
2018-04-14T08:13:46.242Z,39.50
2018-04-14T08:15:39.203Z,44.10
2018-04-14T08:16:39.193Z,42.80
2018-04-14T08:18:32.125Z,47.10
2018-04-14T08:19:32.143Z,47.00
2018-04-14T08:21:25.097Z,49.10
2018-04-14T08:22:25.096Z,50.20
2018-04-14T08:24:18.081Z,48.90
2018-04-14T08:25:18.051Z,51.10
2018-04-14T08:27:11.049Z,49.90
2018-04-14T08:28:11.013Z,47.20
2018-04-14T08:30:03.999Z,48.10
2018-04-14T08:31:03.964Z,50.70
2018-04-14T08:32:56.913Z,51.10
2018-04-14T08:33:56.913Z,49.60
2018-04-14T08:35:50.365Z,51.40
2018-04-14T08:36:50.359Z,51.80
2018-04-14T08:38:43.296Z,52.80
2018-04-14T08:39:43.313Z,54.60
2018-04-14T08:41:36.262Z,52.80
2018-04-14T08:42:36.263Z,53.20
2018-04-14T08:44:29.193Z,55.20
2018-04-14T08:45:29.214Z,53.70
2018-04-14T08:47:22.276Z,55.00
2018-04-14T08:48:22.162Z,56.10
2018-04-14T08:50:15.138Z,56.60
2018-04-14T08:51:15.109Z,58.30
2018-04-14T08:53:08.067Z,57.10
2018-04-14T08:54:08.060Z,59.00
2018-04-14T08:56:01.405Z,56.60
2018-04-14T08:57:01.008Z,55.20
2018-04-14T08:58:53.939Z,58.10
2018-04-14T08:59:53.962Z,61.30
2018-04-14T09:01:46.956Z,58.20
2018-04-14T09:02:46.911Z,55.50
2018-04-14T09:04:39.844Z,55.50
2018-04-14T09:05:39.858Z,53.80
2018-04-14T09:07:32.812Z,56.70
2018-04-14T09:08:32.818Z,59.40
2018-04-14T09:10:25.794Z,58.30
2018-04-14T09:11:25.771Z,57.90
2018-04-14T09:13:18.782Z,57.40
2018-04-14T09:14:18.722Z,53.30
2018-04-14T09:16:11.715Z,56.30
2018-04-14T09:17:11.673Z,55.10
2018-04-14T09:19:04.613Z,60.90
2018-04-14T09:20:04.632Z,58.30
2018-04-14T09:21:57.584Z,57.50
2018-04-14T09:22:57.586Z,59.30
2018-04-14T09:24:50.520Z,60.60
2018-04-14T09:25:50.541Z,62.60
2018-04-14T09:27:43.496Z,72.60
2018-04-14T09:28:43.494Z,71.80
2018-04-14T09:30:36.431Z,67.40
2018-04-14T09:31:36.451Z,67.70
2018-04-14T09:33:29.405Z,65.50
2018-04-14T09:34:29.405Z,64.00
2018-04-14T09:36:22.356Z,65.10
2018-04-14T09:37:22.358Z,65.70
2018-04-14T09:39:15.289Z,70.50
2018-04-14T09:40:15.310Z,72.80
2018-04-14T09:42:08.760Z,68.30
2018-04-14T09:43:08.778Z,71.40
2018-04-14T09:45:01.700Z,67.90
2018-04-14T09:46:01.719Z,68.10
2018-04-14T09:47:54.676Z,65.80
2018-04-14T09:48:54.675Z,67.00
2018-04-14T09:50:47.614Z,62.20
2018-04-14T09:51:47.631Z,69.20
2018-04-14T09:53:40.580Z,66.40
2018-04-14T09:54:40.580Z,70.10
2018-04-14T09:56:33.553Z,76.00
2018-04-14T09:57:33.530Z,75.60
2018-04-14T09:59:26.466Z,79.50
2018-04-14T10:00:26.486Z,76.60
2018-04-14T10:02:19.439Z,74.70
2018-04-14T10:03:19.438Z,73.50
2018-04-14T10:05:12.380Z,76.30
2018-04-14T10:06:12.397Z,77.90
2018-04-14T10:08:05.349Z,73.30
2018-04-14T10:09:05.348Z,72.20
2018-04-14T10:10:58.280Z,74.50
2018-04-14T10:11:58.303Z,74.80
2018-04-14T10:13:51.260Z,73.50
2018-04-14T10:14:51.257Z,66.90
2018-04-14T10:16:44.194Z,68.50
2018-04-14T10:17:44.213Z,70.10
2018-04-14T10:19:37.166Z,71.60
2018-04-14T10:20:37.167Z,71.70
2018-04-14T10:22:30.168Z,68.00
2018-04-14T10:23:30.121Z,69.50
2018-04-14T10:25:23.058Z,71.20
2018-04-14T10:26:23.079Z,74.90
2018-04-14T10:28:16.031Z,70.20
2018-04-14T10:29:16.033Z,72.50
2018-04-14T10:31:08.967Z,70.60
2018-04-14T10:32:08.984Z,71.20
2018-04-14T10:34:01.942Z,74.50
2018-04-14T10:35:01.944Z,70.80
2018-04-14T10:36:55.372Z,74.60
2018-04-14T10:37:55.470Z,76.80
2018-04-14T10:39:48.347Z,76.10
2018-04-14T10:40:48.348Z,73.60
2018-04-14T10:42:41.300Z,73.20
2018-04-14T10:43:41.300Z,74.20
2018-04-14T10:45:34.234Z,75.90
2018-04-14T10:46:34.252Z,78.50
2018-04-14T10:48:27.205Z,76.20
2018-04-14T10:49:27.209Z,76.30
2018-04-14T10:51:20.141Z,70.80
2018-04-14T10:52:20.157Z,75.90
2018-04-14T10:54:13.112Z,72.90
2018-04-14T10:55:13.107Z,72.90
2018-04-14T10:57:06.046Z,73.00
2018-04-14T10:58:06.064Z,74.70
2018-04-14T10:59:59.016Z,74.40
2018-04-14T11:00:59.019Z,71.20
2018-04-14T11:02:51.975Z,72.10
2018-04-14T11:03:52.019Z,73.60
2018-04-14T11:05:44.917Z,68.80
2018-04-14T11:06:44.932Z,71.00
2018-04-14T11:08:37.883Z,74.30
2018-04-14T11:09:37.892Z,68.60
2018-04-14T11:11:30.864Z,71.60
2018-04-14T11:12:30.848Z,68.90
2018-04-14T11:14:23.797Z,72.80
2018-04-14T11:15:23.799Z,70.70
2018-04-14T11:17:16.737Z,74.30
2018-04-14T11:18:16.754Z,70.60
2018-04-14T11:20:09.712Z,73.90
2018-04-14T11:21:09.711Z,69.40
2018-04-14T11:23:02.718Z,74.00
2018-04-14T11:24:02.672Z,76.50
2018-04-14T11:25:55.605Z,75.40
2018-04-14T11:26:55.625Z,72.80
2018-04-14T11:28:48.578Z,73.00
2018-04-14T11:29:48.578Z,72.20
2018-04-14T11:31:41.519Z,71.50
2018-04-14T11:32:41.536Z,69.10
2018-04-14T11:34:34.488Z,72.00
2018-04-14T11:35:34.528Z,72.20
2018-04-14T11:37:27.426Z,72.90
2018-04-14T11:38:27.448Z,74.10
2018-04-14T11:40:20.405Z,70.90
2018-04-14T11:41:20.402Z,70.60
2018-04-14T11:43:13.366Z,70.90
2018-04-14T11:44:13.360Z,75.00
2018-04-14T11:46:06.303Z,72.00
2018-04-14T11:47:06.316Z,72.90
2018-04-14T11:48:59.322Z,73.80
2018-04-14T11:49:59.287Z,74.60
2018-04-14T11:51:52.211Z,68.90
2018-04-14T11:52:52.235Z,70.00
2018-04-14T11:54:45.182Z,70.40
2018-04-14T11:55:45.184Z,68.30
2018-04-14T11:57:38.120Z,70.30
2018-04-14T11:58:38.141Z,68.50
2018-04-14T12:00:31.097Z,73.90
2018-04-14T12:01:31.096Z,73.20
2018-04-14T12:03:24.049Z,73.70
2018-04-14T12:04:24.051Z,74.20
2018-04-14T12:06:17.023Z,72.80
2018-04-14T12:07:17.024Z,73.90
2018-04-14T12:08:17.047Z,72.60
2018-04-14T12:09:17.095Z,77.50
2018-04-14T12:10:17.095Z,71.90
2018-04-14T12:11:17.131Z,75.60
2018-04-14T12:12:17.146Z,71.00
2018-04-14T12:13:17.171Z,73.80
2018-04-14T12:14:17.192Z,78.00
2018-04-14T12:15:17.217Z,75.80
2018-04-14T12:16:17.240Z,73.70
2018-04-14T12:17:17.263Z,73.70
2018-04-14T12:18:17.289Z,76.40
2018-04-14T12:19:17.309Z,73.70
2018-04-14T12:20:17.334Z,77.10
2018-04-14T12:21:17.358Z,72.30
2018-04-14T12:22:17.387Z,70.10
2018-04-14T12:23:17.406Z,69.40
2018-04-14T12:24:17.432Z,69.50
2018-04-14T12:25:17.452Z,73.80
2018-04-14T12:26:17.479Z,69.90
2018-04-14T12:27:17.501Z,70.90
2018-04-14T12:28:17.524Z,72.80
2018-04-14T12:29:17.547Z,69.40
2018-04-14T12:30:17.571Z,67.20
2018-04-14T12:31:17.595Z,68.30
2018-04-14T12:32:17.619Z,69.40
2018-04-14T12:33:17.645Z,67.30
2018-04-14T12:34:17.673Z,68.60
2018-04-14T12:35:17.693Z,70.80
2018-04-14T12:36:17.715Z,66.60
2018-04-14T12:37:17.740Z,72.10
2018-04-14T12:38:17.763Z,69.00
2018-04-14T12:39:17.787Z,68.50
2018-04-14T12:40:17.812Z,67.70
2018-04-14T12:41:17.836Z,65.60
2018-04-14T12:42:17.860Z,65.10
2018-04-14T12:43:17.884Z,64.00
2018-04-14T12:44:17.908Z,65.00
2018-04-14T12:45:17.935Z,63.90
2018-04-14T12:46:17.975Z,66.00
2018-04-14T12:47:17.981Z,63.60
2018-04-14T12:48:18.004Z,66.30
2018-04-14T12:49:18.030Z,63.00
2018-04-14T12:50:18.054Z,63.20
2018-04-14T12:51:18.079Z,61.70
2018-04-14T12:52:18.105Z,65.70
2018-04-14T12:53:18.132Z,69.50
2018-04-14T12:54:18.150Z,66.90
2018-04-14T12:55:18.175Z,62.60
2018-04-14T12:56:18.198Z,64.90
2018-04-14T12:57:18.222Z,62.40
2018-04-14T12:58:18.245Z,61.70
2018-04-14T12:59:18.278Z,61.40
2018-04-14T13:00:18.296Z,62.70
2018-04-14T13:01:18.321Z,63.40
2018-04-14T13:02:18.343Z,60.80
2018-04-14T13:03:18.375Z,63.60
2018-04-14T13:04:18.390Z,62.30
2018-04-14T13:05:18.416Z,61.90
2018-04-14T13:06:18.447Z,56.00
2018-04-14T13:07:18.466Z,53.80
2018-04-14T13:08:18.507Z,55.80
2018-04-14T13:09:18.515Z,56.50
2018-04-14T13:10:18.539Z,53.20
2018-04-14T13:11:18.562Z,56.20
2018-04-14T13:12:18.587Z,54.50
2018-04-14T13:13:18.637Z,60.20
2018-04-14T13:14:18.636Z,57.40
2018-04-14T13:15:18.660Z,53.30
2018-04-14T13:16:18.682Z,55.00
2018-04-14T13:17:18.710Z,55.40
2018-04-14T13:18:18.734Z,57.60
2018-04-14T13:19:18.785Z,57.30
2018-04-14T13:20:18.780Z,59.70
2018-04-14T13:21:18.809Z,61.00
2018-04-14T13:22:18.830Z,61.40
2018-04-14T13:23:18.873Z,57.60
2018-04-14T13:24:18.878Z,58.20
2018-04-14T13:25:18.904Z,59.10
2018-04-14T13:26:18.927Z,57.30
2018-04-14T13:27:18.951Z,56.60
2018-04-14T13:28:18.975Z,60.50
2018-04-14T13:29:19.000Z,55.70
2018-04-14T13:30:19.025Z,56.10
2018-04-14T13:31:19.046Z,52.30
2018-04-14T13:32:19.070Z,53.00
2018-04-14T13:33:19.094Z,51.20
2018-04-14T13:34:19.118Z,49.90
2018-04-14T13:35:19.142Z,52.40
2018-04-14T13:36:19.168Z,52.00
2018-04-14T13:37:19.200Z,51.00
2018-04-14T13:38:19.217Z,52.60
2018-04-14T13:39:19.249Z,50.90
2018-04-14T13:40:19.275Z,58.00
2018-04-14T13:41:19.289Z,54.40
2018-04-14T13:42:19.312Z,54.40
2018-04-14T13:43:19.336Z,51.80
2018-04-14T13:44:19.361Z,54.50
2018-04-14T13:45:19.385Z,54.70
2018-04-14T13:46:19.409Z,56.20
2018-04-14T13:47:19.436Z,52.10
2018-04-14T13:48:19.456Z,55.10
2018-04-14T13:49:19.481Z,52.20
2018-04-14T13:50:19.506Z,51.30
2018-04-14T13:51:19.530Z,50.90
2018-04-14T13:52:19.553Z,53.30
2018-04-14T13:53:19.579Z,49.80
2018-04-14T13:54:19.601Z,51.20
2018-04-14T13:55:19.626Z,51.20
2018-04-14T13:56:19.653Z,49.80
2018-04-14T13:57:19.675Z,52.00
2018-04-14T13:58:19.699Z,45.70
2018-04-14T13:59:19.724Z,50.00
2018-04-14T14:00:19.752Z,48.80
2018-04-14T14:01:19.769Z,53.20
2018-04-14T14:02:19.805Z,54.60
2018-04-14T14:03:19.819Z,51.50
2018-04-14T14:04:19.842Z,51.90
2018-04-14T14:05:19.869Z,51.70
2018-04-14T14:06:19.892Z,51.90
2018-04-14T14:07:19.915Z,50.90
2018-04-14T14:08:19.939Z,52.90
2018-04-14T14:09:19.964Z,53.10
2018-04-14T14:10:19.991Z,51.10
2018-04-14T14:11:20.013Z,50.30
2018-04-14T14:12:20.037Z,51.60
2018-04-14T14:13:20.065Z,49.70
2018-04-14T14:14:20.084Z,53.10
2018-04-14T14:15:20.108Z,52.90
2018-04-14T14:16:20.136Z,51.20
2018-04-14T14:17:20.163Z,50.20
2018-04-14T14:18:20.184Z,51.20
2018-04-14T14:19:20.208Z,51.20
2018-04-14T14:20:20.232Z,51.60
2018-04-14T14:21:20.255Z,53.70
2018-04-14T14:22:20.280Z,51.90
2018-04-14T14:23:20.309Z,54.70
2018-04-14T14:24:20.327Z,51.20
2018-04-14T14:25:20.352Z,52.20
2018-04-14T14:26:20.380Z,51.20
2018-04-14T14:27:20.399Z,50.00
2018-04-14T14:28:20.423Z,49.50
2018-04-14T14:29:20.445Z,51.80
2018-04-14T14:30:20.472Z,52.00
2018-04-14T14:31:20.493Z,51.90
2018-04-14T14:32:20.532Z,50.90
2018-04-14T14:33:20.542Z,49.80
2018-04-14T14:34:20.569Z,50.20
2018-04-14T14:35:20.589Z,51.20
2018-04-14T14:36:20.614Z,49.30
2018-04-14T14:37:20.645Z,50.00
2018-04-14T14:38:20.663Z,44.30
2018-04-14T14:39:20.685Z,47.90
2018-04-14T14:40:20.710Z,48.00
2018-04-14T14:41:20.735Z,45.30
2018-04-14T14:42:20.771Z,47.80
2018-04-14T14:43:20.780Z,46.20
2018-04-14T14:44:20.807Z,45.80
2018-04-14T14:45:20.829Z,45.60
2018-04-14T14:46:20.853Z,47.60
2018-04-14T14:47:20.881Z,46.10
2018-04-14T14:48:20.902Z,48.40
2018-04-14T14:49:20.931Z,48.10
2018-04-14T14:50:20.953Z,47.00
2018-04-14T14:51:20.972Z,45.40
2018-04-14T14:52:20.996Z,44.40
2018-04-14T14:53:21.022Z,45.80
2018-04-14T14:54:21.049Z,45.20
2018-04-14T14:55:21.072Z,44.00
2018-04-14T14:56:21.094Z,45.00
2018-04-14T14:57:21.119Z,46.50
2018-04-14T14:58:21.144Z,45.20
2018-04-14T14:59:21.167Z,65.30
2018-04-14T15:00:21.194Z,50.80
2018-04-14T15:01:21.218Z,47.20
2018-04-14T15:02:21.239Z,49.50
2018-04-14T15:03:21.264Z,53.70
2018-04-14T15:04:21.289Z,49.60
2018-04-14T15:05:21.318Z,47.70
2018-04-14T15:06:21.336Z,43.80
2018-04-14T15:07:21.360Z,43.60
2018-04-14T15:08:21.386Z,47.00
2018-04-14T15:09:21.421Z,45.20
2018-04-14T15:10:21.434Z,47.40
2018-04-14T15:11:21.458Z,46.90
2018-04-14T15:12:21.484Z,48.00
2018-04-14T15:13:21.506Z,46.40
2018-04-14T15:14:21.543Z,48.30
2018-04-14T15:15:21.568Z,48.20
2018-04-14T15:16:21.584Z,52.00
2018-04-14T15:17:21.603Z,47.50
2018-04-14T15:18:21.632Z,44.40
2018-04-14T15:19:21.652Z,45.70
2018-04-14T15:20:21.676Z,46.20
2018-04-14T15:21:21.700Z,42.80
2018-04-14T15:22:21.725Z,43.40
2018-04-14T15:23:21.749Z,46.50
2018-04-14T15:24:21.780Z,46.60
2018-04-14T15:25:21.832Z,42.70
2018-04-14T15:26:21.824Z,42.40
2018-04-14T15:27:21.849Z,42.70
2018-04-14T15:28:21.875Z,45.10
2018-04-14T15:29:21.899Z,43.70
2018-04-14T15:30:21.923Z,45.10
2018-04-14T15:31:21.950Z,47.70
2018-04-14T15:32:21.977Z,47.60
2018-04-14T15:33:21.994Z,45.90
2018-04-14T15:34:22.021Z,46.60
2018-04-14T15:35:22.044Z,46.60
2018-04-14T15:36:22.070Z,44.40
2018-04-14T15:37:22.094Z,44.20
2018-04-14T15:38:22.117Z,42.10
2018-04-14T15:39:22.148Z,44.50
2018-04-14T15:40:22.164Z,45.30
2018-04-14T15:41:22.192Z,43.90
2018-04-14T15:42:22.214Z,45.70
2018-04-14T15:43:22.237Z,44.70
2018-04-14T15:44:22.262Z,48.00
2018-04-14T15:45:22.287Z,46.10
2018-04-14T15:46:22.311Z,45.50
2018-04-14T15:47:22.343Z,48.40
2018-04-14T15:48:22.371Z,48.40
2018-04-14T15:49:22.385Z,46.80
2018-04-14T15:50:22.407Z,44.30
2018-04-14T15:51:22.449Z,43.30
2018-04-14T15:52:22.456Z,42.40
2018-04-14T15:53:22.483Z,43.30
2018-04-14T15:54:22.506Z,44.00
2018-04-14T15:55:22.526Z,45.20
2018-04-14T15:56:22.552Z,45.40
2018-04-14T15:57:22.580Z,44.40
2018-04-14T15:58:22.603Z,42.30
2018-04-14T15:59:22.627Z,42.40
2018-04-14T16:00:22.649Z,43.00
2018-04-14T16:01:22.673Z,42.30
2018-04-14T16:02:22.703Z,40.90
2018-04-14T16:03:22.721Z,43.00
2018-04-14T16:04:22.771Z,41.60
2018-04-14T16:05:22.772Z,42.60
2018-04-14T16:06:22.793Z,40.80
2018-04-14T16:07:22.822Z,45.80
2018-04-14T16:08:22.845Z,43.40
2018-04-14T16:09:22.923Z,41.40
2018-04-14T16:10:22.898Z,43.20
2018-04-14T16:11:22.916Z,41.30
2018-04-14T16:12:22.940Z,42.50
2018-04-14T16:13:22.967Z,47.30
2018-04-14T16:14:22.991Z,49.90
2018-04-14T16:15:23.017Z,52.00
2018-04-14T16:16:23.050Z,51.30
2018-04-14T16:17:23.064Z,53.50
2018-04-14T16:18:23.089Z,53.80
2018-04-14T16:19:23.115Z,53.70
2018-04-14T16:20:23.136Z,54.00
2018-04-14T16:21:23.165Z,53.80
2018-04-14T16:22:23.185Z,53.80
2018-04-14T16:23:23.208Z,55.80
2018-04-14T16:24:23.232Z,55.20
2018-04-14T16:25:23.257Z,52.40
2018-04-14T16:26:23.282Z,55.30
2018-04-14T16:27:23.307Z,53.60
2018-04-14T16:28:23.330Z,53.20
2018-04-14T16:29:23.355Z,54.80
2018-04-14T16:30:23.389Z,53.40
2018-04-14T16:31:23.417Z,54.00
2018-04-14T16:32:23.432Z,55.00
2018-04-14T16:33:23.451Z,55.60
2018-04-14T16:34:23.473Z,58.40
2018-04-14T16:35:23.498Z,55.80
2018-04-14T16:36:23.525Z,57.00
2018-04-14T16:37:23.546Z,57.80
2018-04-14T16:38:23.571Z,57.10
2018-04-14T16:39:23.592Z,53.80
2018-04-14T16:40:23.616Z,54.40
2018-04-14T16:41:23.640Z,54.30
2018-04-14T16:42:23.664Z,54.20
2018-04-14T16:43:23.687Z,54.60
2018-04-14T16:44:23.724Z,56.00
2018-04-14T16:45:23.733Z,54.40
2018-04-14T16:46:23.759Z,53.50
2018-04-14T16:47:23.781Z,54.30
2018-04-14T16:48:23.809Z,56.70
2018-04-14T16:49:23.833Z,54.00
2018-04-14T16:50:23.853Z,55.30
2018-04-14T16:51:23.875Z,55.00
2018-04-14T16:52:23.900Z,54.10
2018-04-14T16:53:23.938Z,59.30
2018-04-14T16:54:23.947Z,58.60
2018-04-14T16:55:23.972Z,58.20
2018-04-14T16:56:23.990Z,59.50
2018-04-14T16:57:24.025Z,53.10
2018-04-14T16:58:24.039Z,58.60
2018-04-14T16:59:24.062Z,57.90
2018-04-14T17:00:24.086Z,58.90
2018-04-14T17:01:24.110Z,60.00
2018-04-14T17:02:24.132Z,59.50
2018-04-14T17:03:24.152Z,61.60
2018-04-14T17:04:24.180Z,58.40
2018-04-14T17:05:24.203Z,57.10
2018-04-14T17:06:24.222Z,55.50
2018-04-14T17:07:24.244Z,58.10
2018-04-14T17:08:24.278Z,57.90
2018-04-14T17:09:24.293Z,61.60
2018-04-14T17:10:24.314Z,56.60
2018-04-14T17:11:24.334Z,54.50
2018-04-14T17:12:24.361Z,56.30
2018-04-14T17:13:24.383Z,56.00
2018-04-14T17:14:24.424Z,57.10
2018-04-14T17:15:24.430Z,57.70
2018-04-14T17:16:24.451Z,60.90
2018-04-14T17:17:24.474Z,58.70
2018-04-14T17:18:24.498Z,59.30
2018-04-14T17:19:24.520Z,56.70
2018-04-14T17:20:24.543Z,56.30
2018-04-14T17:21:24.565Z,59.80
2018-04-14T17:22:24.588Z,70.20
2018-04-14T17:23:24.615Z,60.00
2018-04-14T17:24:24.632Z,58.60
2018-04-14T17:25:24.655Z,58.20
2018-04-14T17:26:24.694Z,57.00
2018-04-14T17:27:24.701Z,59.30
2018-04-14T17:28:24.723Z,61.10
2018-04-14T17:29:24.749Z,55.50
2018-04-14T17:30:24.771Z,61.70
2018-04-14T17:31:24.793Z,60.80
2018-04-14T17:32:24.815Z,59.40
2018-04-14T17:33:24.836Z,63.10
2018-04-14T17:34:24.858Z,64.10
2018-04-14T17:35:24.880Z,69.30
2018-04-14T17:36:24.916Z,62.60
2018-04-14T17:37:24.925Z,59.10
2018-04-14T17:38:24.948Z,55.10
2018-04-14T17:39:24.970Z,56.70
2018-04-14T17:40:24.994Z,56.30
2018-04-14T17:41:25.016Z,56.00
2018-04-14T17:42:25.040Z,57.50
2018-04-14T17:43:25.061Z,58.70
2018-04-14T17:44:25.141Z,56.40
2018-04-14T17:45:25.104Z,58.70
2018-04-14T17:46:25.133Z,60.60
2018-04-14T17:47:25.155Z,60.10
2018-04-14T17:48:25.174Z,56.50
2018-04-14T17:49:25.195Z,59.30
2018-04-14T17:50:25.218Z,61.30
2018-04-14T17:51:25.240Z,61.40
2018-04-14T17:52:25.263Z,60.40
2018-04-14T17:53:25.285Z,60.30
2018-04-14T17:54:25.310Z,62.70
2018-04-14T17:55:25.344Z,60.80
2018-04-14T17:56:25.352Z,61.00
2018-04-14T17:57:25.377Z,56.60
2018-04-14T17:58:25.398Z,58.40
2018-04-14T17:59:25.420Z,57.50
2018-04-14T18:00:25.442Z,59.60
2018-04-14T18:01:25.470Z,57.30
2018-04-14T18:02:25.490Z,62.90
2018-04-14T18:03:25.511Z,58.20
2018-04-14T18:04:25.535Z,56.20
2018-04-14T18:05:25.553Z,56.80
2018-04-14T18:06:25.575Z,55.10
2018-04-14T18:07:25.608Z,54.20
2018-04-14T18:08:25.618Z,54.60
2018-04-14T18:09:25.646Z,57.00
2018-04-14T18:10:25.665Z,56.30
2018-04-14T18:11:25.686Z,56.90
2018-04-14T18:12:25.709Z,54.50
2018-04-14T18:13:25.731Z,57.90
2018-04-14T18:14:25.757Z,56.70
2018-04-14T18:15:25.778Z,55.10
2018-04-14T18:16:25.796Z,52.00
2018-04-14T18:17:25.843Z,55.50
2018-04-14T18:18:25.842Z,55.80
2018-04-14T18:19:25.861Z,56.50
2018-04-14T18:20:25.884Z,54.90
2018-04-14T18:21:25.907Z,54.70
2018-04-14T18:22:25.930Z,60.40
2018-04-14T18:23:25.953Z,56.90
2018-04-14T18:24:25.972Z,56.30
2018-04-14T18:25:25.995Z,59.70
2018-04-14T18:26:26.015Z,54.50
2018-04-14T18:27:26.045Z,59.60
2018-04-14T18:28:26.061Z,56.60
2018-04-14T18:29:26.087Z,58.60
2018-04-14T18:30:26.106Z,58.30
2018-04-14T18:31:26.158Z,61.50
2018-04-14T18:32:26.148Z,61.60
2018-04-14T18:33:26.171Z,55.60
2018-04-14T18:34:26.194Z,57.60
2018-04-14T18:35:26.218Z,58.10
2018-04-14T18:36:26.236Z,54.90
2018-04-14T18:37:26.258Z,57.70
2018-04-14T18:38:26.285Z,57.90
2018-04-14T18:39:26.313Z,59.40
2018-04-14T18:40:26.323Z,57.50
2018-04-14T18:41:26.345Z,60.30
2018-04-14T18:42:26.367Z,59.70
2018-04-14T18:43:26.389Z,56.60
2018-04-14T18:44:26.410Z,55.50
2018-04-14T18:45:26.435Z,57.00
2018-04-14T18:46:26.456Z,59.60
2018-04-14T18:47:26.477Z,58.30
2018-04-14T18:48:26.498Z,59.00
2018-04-14T18:49:26.523Z,57.50
2018-04-14T18:50:26.541Z,58.40
2018-04-14T18:51:26.804Z,59.20
2018-04-14T18:52:26.587Z,55.70
2018-04-14T18:53:26.607Z,61.30
2018-04-14T18:54:26.627Z,58.40
2018-04-14T18:55:26.661Z,61.70
2018-04-14T18:56:26.676Z,58.10
2018-04-14T18:57:26.697Z,59.40
2018-04-14T18:58:26.716Z,58.40
2018-04-14T18:59:26.736Z,56.80
2018-04-14T19:00:26.758Z,58.20
2018-04-14T19:01:26.779Z,60.30
2018-04-14T19:02:26.915Z,58.10
2018-04-14T19:03:26.823Z,59.40
2018-04-14T19:04:26.846Z,55.20
2018-04-14T19:05:26.866Z,57.80
2018-04-14T19:06:26.890Z,59.80
2018-04-14T19:07:26.909Z,61.00
2018-04-14T19:08:26.932Z,60.90
2018-04-14T19:09:26.953Z,58.40
2018-04-14T19:10:27.010Z,61.00